createdAt,value
2018-09-15T00:03:16.964Z,97.50
2018-09-15T00:08:10.266Z,97.50
2018-09-15T00:13:03.662Z,97.60
2018-09-15T00:17:58.031Z,97.80
2018-09-15T00:22:51.284Z,98.00
2018-09-15T00:27:44.567Z,98.30
2018-09-15T00:32:37.805Z,98.60
2018-09-15T00:37:31.072Z,98.80
2018-09-15T00:42:24.352Z,98.90
2018-09-15T00:47:17.939Z,98.80
2018-09-15T00:52:11.752Z,98.70
2018-09-15T00:57:05.084Z,98.80
2018-09-15T01:01:58.340Z,98.80
2018-09-15T01:06:51.625Z,98.70
2018-09-15T01:11:44.917Z,98.80
2018-09-15T01:16:38.887Z,98.90
2018-09-15T01:21:32.139Z,98.80
2018-09-15T01:26:25.418Z,98.80
2018-09-15T01:31:21.794Z,99.00
2018-09-15T01:36:15.057Z,99.60
2018-09-15T01:41:09.259Z,99.90
2018-09-15T01:46:03.113Z,99.90
2018-09-15T01:50:56.357Z,99.90
2018-09-15T01:55:49.747Z,99.90
2018-09-15T02:00:42.997Z,99.90
2018-09-15T02:05:36.195Z,99.90
2018-09-15T02:10:29.462Z,99.90
2018-09-15T02:15:22.691Z,99.90
2018-09-15T02:20:15.950Z,99.90
2018-09-15T02:25:12.061Z,99.90
2018-09-15T02:30:05.453Z,99.90
2018-09-15T02:34:58.773Z,99.90
2018-09-15T02:39:52.675Z,99.90
2018-09-15T02:44:45.927Z,99.90
2018-09-15T02:49:39.158Z,99.90
2018-09-15T02:54:32.430Z,99.90
2018-09-15T02:59:26.091Z,99.90
2018-09-15T03:04:19.648Z,99.90
2018-09-15T03:09:13.668Z,99.90
2018-09-15T03:14:06.947Z,99.90
2018-09-15T03:19:00.212Z,99.90
2018-09-15T03:23:53.441Z,99.90
2018-09-15T03:28:46.942Z,99.90
2018-09-15T03:33:40.992Z,99.90
2018-09-15T03:38:34.235Z,99.90
2018-09-15T03:43:27.472Z,99.90
2018-09-15T03:48:20.722Z,99.90
2018-09-15T03:53:13.955Z,99.90
2018-09-15T03:58:07.202Z,99.90
2018-09-15T04:03:00.453Z,99.90
2018-09-15T04:07:53.729Z,99.90
2018-09-15T04:12:47.029Z,99.90
2018-09-15T04:17:40.370Z,99.90
2018-09-15T04:22:33.611Z,99.90
2018-09-15T04:27:26.866Z,99.90
2018-09-15T04:32:20.071Z,99.90
2018-09-15T04:37:13.304Z,99.90
2018-09-15T04:42:06.581Z,99.90
2018-09-15T04:46:59.832Z,99.90
2018-09-15T04:51:53.140Z,99.90
2018-09-15T04:56:46.488Z,99.90
2018-09-15T05:01:39.718Z,99.90
2018-09-15T05:06:33.024Z,99.90
2018-09-15T05:11:26.274Z,99.90
2018-09-15T05:16:19.529Z,99.90
2018-09-15T05:21:12.768Z,99.90
2018-09-15T05:26:06.054Z,99.90
2018-09-15T05:30:59.544Z,99.90
2018-09-15T05:35:52.749Z,99.90
2018-09-15T05:40:45.986Z,99.90
2018-09-15T05:45:39.266Z,99.90
2018-09-15T05:50:32.514Z,99.90
2018-09-15T05:55:25.730Z,99.90
2018-09-15T06:00:19.128Z,99.90
2018-09-15T06:05:13.021Z,99.90
2018-09-15T06:10:06.338Z,99.90
2018-09-15T06:14:59.592Z,99.90
2018-09-15T06:19:52.849Z,99.90
2018-09-15T06:24:46.094Z,99.90
2018-09-15T06:29:39.327Z,99.90
2018-09-15T06:34:32.659Z,99.90
2018-09-15T06:39:25.925Z,99.90
2018-09-15T06:44:19.154Z,99.90
2018-09-15T06:49:12.417Z,99.90
2018-09-15T06:54:05.667Z,98.10
2018-09-15T06:58:58.964Z,95.90
2018-09-15T07:03:52.213Z,94.70
2018-09-15T07:08:45.621Z,92.70
2018-09-15T07:13:38.864Z,91.50
2018-09-15T07:18:32.127Z,89.70
2018-09-15T07:23:25.393Z,92.60
2018-09-15T07:28:18.698Z,94.90
2018-09-15T07:33:12.943Z,92.30
2018-09-15T07:38:06.291Z,92.10
2018-09-15T07:43:00.127Z,91.30
2018-09-15T07:47:53.382Z,92.40
2018-09-15T07:52:46.653Z,92.10
2018-09-15T07:57:40.170Z,90.00
2018-09-15T08:02:33.328Z,86.10
2018-09-15T08:07:26.589Z,81.00
2018-09-15T08:12:20.093Z,84.40
2018-09-15T08:17:13.407Z,86.30
2018-09-15T08:22:06.657Z,82.80
2018-09-15T08:27:00.238Z,78.50
2018-09-15T08:31:53.528Z,77.50
2018-09-15T08:36:46.816Z,82.70
2018-09-15T08:41:40.338Z,87.90
2018-09-15T08:46:33.852Z,90.10
2018-09-15T08:51:27.113Z,86.20
2018-09-15T08:56:21.095Z,80.10
2018-09-15T09:01:14.338Z,79.10
2018-09-15T09:06:07.617Z,77.80
2018-09-15T09:11:00.845Z,74.80
2018-09-15T09:15:54.154Z,75.60
2018-09-15T09:20:47.479Z,79.30
2018-09-15T09:25:40.742Z,83.30
2018-09-15T09:30:34.271Z,85.00
2018-09-15T09:35:27.492Z,85.20
2018-09-15T09:40:21.593Z,84.90
2018-09-15T09:45:14.821Z,82.20
2018-09-15T09:50:08.098Z,81.60
2018-09-15T09:55:01.414Z,85.50
2018-09-15T09:59:54.707Z,86.30
2018-09-15T10:04:48.032Z,85.70
2018-09-15T10:09:41.284Z,85.50
2018-09-15T10:14:34.528Z,85.90
2018-09-15T10:19:27.773Z,86.20
2018-09-15T10:24:21.075Z,85.60
2018-09-15T10:29:14.421Z,85.60
2018-09-15T10:34:07.711Z,86.70
2018-09-15T10:39:01.009Z,89.40
2018-09-15T10:43:54.255Z,90.30
2018-09-15T10:48:47.565Z,90.70
2018-09-15T10:53:41.791Z,89.70
2018-09-15T10:58:35.021Z,88.20
2018-09-15T11:03:28.249Z,87.00
2018-09-15T11:08:21.491Z,85.30
2018-09-15T11:13:14.780Z,84.30
2018-09-15T11:18:08.053Z,84.70
2018-09-15T11:23:01.328Z,83.00
2018-09-15T11:27:54.779Z,81.60
2018-09-15T11:32:48.145Z,81.10
2018-09-15T11:37:41.495Z,81.60
2018-09-15T11:42:34.900Z,80.90
2018-09-15T11:47:28.258Z,80.00
2018-09-15T11:52:21.483Z,79.10
2018-09-15T11:57:14.868Z,78.00
2018-09-15T12:02:08.523Z,75.00
2018-09-15T12:07:01.752Z,75.70
2018-09-15T12:11:55.007Z,76.10
2018-09-15T12:16:48.260Z,74.60
2018-09-15T12:21:41.700Z,73.80
2018-09-15T12:26:34.926Z,72.30
2018-09-15T12:31:28.168Z,71.30
2018-09-15T12:36:21.462Z,69.90
2018-09-15T12:41:14.741Z,67.80
2018-09-15T12:46:08.026Z,70.10
2018-09-15T12:51:01.272Z,69.90
2018-09-15T12:55:54.505Z,69.40
2018-09-15T13:00:47.819Z,69.90
2018-09-15T13:05:41.116Z,68.60
2018-09-15T13:10:34.355Z,69.20
2018-09-15T13:15:28.593Z,70.50
2018-09-15T13:20:22.530Z,70.00
2018-09-15T13:25:15.819Z,69.20
2018-09-15T13:30:09.352Z,69.10
2018-09-15T13:35:02.598Z,68.50
2018-09-15T13:39:55.846Z,67.50
2018-09-15T13:44:49.117Z,66.50
2018-09-15T13:49:42.405Z,65.00
2018-09-15T13:54:35.640Z,64.60
2018-09-15T13:59:28.965Z,64.70
2018-09-15T14:04:22.341Z,62.70
2018-09-15T14:09:15.524Z,63.00
2018-09-15T14:14:08.780Z,62.90
2018-09-15T14:19:02.083Z,63.30
2018-09-15T14:23:55.368Z,62.60
2018-09-15T14:28:48.670Z,64.10
2018-09-15T14:33:42.045Z,65.20
2018-09-15T14:38:35.368Z,66.30
2018-09-15T14:43:28.719Z,66.80
2018-09-15T14:48:21.987Z,66.80
2018-09-15T14:53:15.245Z,66.80
2018-09-15T14:58:08.840Z,66.80
2018-09-15T15:03:04.267Z,68.40
2018-09-15T15:07:57.653Z,69.90
2018-09-15T15:12:51.061Z,70.90
2018-09-15T15:17:44.292Z,72.10
2018-09-15T15:22:37.848Z,72.20
2018-09-15T15:27:31.118Z,72.50
2018-09-15T15:32:24.452Z,73.50
2018-09-15T15:37:17.681Z,72.90
2018-09-15T15:42:10.933Z,72.10
2018-09-15T15:47:04.223Z,72.70
2018-09-15T15:51:57.558Z,72.40
2018-09-15T15:56:50.861Z,73.00
2018-09-15T16:01:44.136Z,73.30
2018-09-15T16:06:37.396Z,72.70
2018-09-15T16:11:30.626Z,72.30
2018-09-15T16:16:23.902Z,73.10
2018-09-15T16:21:17.206Z,73.90
2018-09-15T16:26:10.545Z,74.20
2018-09-15T16:31:03.889Z,75.50
2018-09-15T16:35:57.162Z,76.80
2018-09-15T16:40:50.433Z,77.60
2018-09-15T16:45:43.726Z,78.40
2018-09-15T16:50:36.931Z,79.50
2018-09-15T16:55:30.193Z,80.20
2018-09-15T17:00:23.434Z,81.30
2018-09-15T17:05:16.663Z,82.70
2018-09-15T17:10:09.899Z,83.20
2018-09-15T17:15:03.173Z,83.70
2018-09-15T17:19:56.490Z,84.50
2018-09-15T17:24:49.728Z,85.60
2018-09-15T17:29:42.968Z,86.80
2018-09-15T17:34:36.319Z,87.80
2018-09-15T17:39:29.563Z,88.90
2018-09-15T17:44:22.796Z,90.00
2018-09-15T17:49:16.063Z,90.30
2018-09-15T17:54:09.370Z,90.80
2018-09-15T17:59:02.726Z,91.20
2018-09-15T18:03:55.952Z,91.70
2018-09-15T18:08:49.594Z,92.10
2018-09-15T18:13:42.878Z,92.40
2018-09-15T18:18:36.220Z,92.50
2018-09-15T18:23:29.437Z,92.70
2018-09-15T18:28:22.735Z,93.20
2018-09-15T18:33:15.963Z,93.70
2018-09-15T18:38:09.266Z,94.30
2018-09-15T18:43:02.551Z,94.90
2018-09-15T18:47:56.304Z,95.70
2018-09-15T18:52:49.564Z,96.00
2018-09-15T18:57:42.783Z,96.20
2018-09-15T19:02:36.242Z,96.60
2018-09-15T19:07:29.668Z,96.90
2018-09-15T19:12:22.985Z,97.30
2018-09-15T19:17:16.246Z,97.70
2018-09-15T19:22:09.622Z,97.90
2018-09-15T19:27:02.958Z,98.20
2018-09-15T19:31:56.219Z,98.80
2018-09-15T19:36:49.908Z,99.00
2018-09-15T19:41:43.169Z,99.50
2018-09-15T19:46:37.826Z,99.70
2018-09-15T19:51:31.088Z,99.90
2018-09-15T19:56:24.328Z,99.90
2018-09-15T20:01:17.540Z,99.90
2018-09-15T20:06:11.010Z,99.90
2018-09-15T20:11:04.231Z,99.90
2018-09-15T20:15:55.852Z,99.90
2018-09-15T20:20:47.509Z,99.90
2018-09-15T20:25:41.738Z,99.90
2018-09-15T20:30:34.976Z,99.90
2018-09-15T20:35:28.201Z,99.90
2018-09-15T20:40:21.489Z,99.90
2018-09-15T20:45:14.791Z,99.90
2018-09-15T20:50:08.784Z,99.90
2018-09-15T20:55:02.115Z,99.90
2018-09-15T20:59:55.338Z,99.90
2018-09-15T21:04:49.242Z,99.90
2018-09-15T21:09:42.778Z,99.90
2018-09-15T21:14:36.095Z,99.90
2018-09-15T21:19:29.347Z,99.90
2018-09-15T21:24:22.584Z,99.90
2018-09-15T21:29:15.838Z,99.90
2018-09-15T21:34:09.055Z,99.90
2018-09-15T21:39:02.395Z,99.90
2018-09-15T21:43:55.671Z,99.90
2018-09-15T21:48:48.915Z,99.90
2018-09-15T21:53:42.258Z,99.90
2018-09-15T21:58:35.449Z,99.90
2018-09-15T22:03:28.782Z,99.90
2018-09-15T22:08:22.083Z,99.90
2018-09-15T22:13:15.375Z,99.90
2018-09-15T22:18:08.630Z,99.90
2018-09-15T22:23:01.908Z,99.90
2018-09-15T22:27:55.136Z,99.90
2018-09-15T22:32:48.394Z,99.90
2018-09-15T22:37:41.692Z,99.90
2018-09-15T22:42:34.919Z,99.90
2018-09-15T22:47:28.646Z,99.90
2018-09-15T22:52:21.892Z,99.90
2018-09-15T22:57:15.141Z,99.90
2018-09-15T23:02:08.435Z,99.90
2018-09-15T23:07:02.751Z,99.90
2018-09-15T23:11:56.017Z,99.90
2018-09-15T23:16:49.276Z,99.90
2018-09-15T23:21:42.619Z,99.90
2018-09-15T23:26:35.878Z,99.90
2018-09-15T23:31:29.142Z,99.90
2018-09-15T23:36:22.427Z,99.90
2018-09-15T23:41:15.664Z,99.90
2018-09-15T23:46:09.324Z,99.90
2018-09-15T23:51:02.627Z,99.90
2018-09-15T23:55:55.930Z,99.90
